Time;durP1;ratioP1;P1;durP2;ratioP2;P2;SDS_P1;SDS_P2;PMS_P1;PMS_P2;Temp;Humidity;BMP_temperature;BMP_pressure;BME280_temperature;BME280_humidity;BME280_pressure;Samples;Min_cycle;Max_cycle;Signal;HPM_P1;HPM_P2
2022/06/29 00:00:26;;;;;;;3.65;1.80;;;18.30;99.90;;;;;;5078401;28;20029;-62
2022/06/29 00:02:54;;;;;;;5.22;2.03;;;18.20;99.90;;;;;;5078382;28;20108;-62
2022/06/29 00:05:21;;;;;;;4.15;2.10;;;18.20;99.90;;;;;;5061025;28;20101;-63
2022/06/29 00:07:48;;;;;;;2.28;1.80;;;18.20;99.90;;;;;;5078230;28;20063;-63
2022/06/29 00:10:15;;;;;;;3.97;2.20;;;18.30;99.90;;;;;;5078269;28;20029;-61
2022/06/29 00:12:43;;;;;;;3.08;1.65;;;18.20;99.90;;;;;;5078123;28;20296;-62
2022/06/29 00:15:10;;;;;;;2.20;2.00;;;18.20;99.90;;;;;;5078327;28;20303;-62
2022/06/29 00:17:36;;;;;;;5.00;1.95;;;18.30;99.90;;;;;;5078077;28;20230;-62
2022/06/29 00:20:04;;;;;;;3.75;2.05;;;18.30;99.90;;;;;;5077983;28;20044;-63
2022/06/29 00:22:30;;;;;;;3.35;1.70;;;18.30;99.90;;;;;;5060588;28;20047;-62
2022/06/29 00:24:56;;;;;;;4.00;2.10;;;18.30;99.90;;;;;;5077825;28;20044;-62
2022/06/29 00:27:22;;;;;;;3.90;2.25;;;18.20;99.90;;;;;;5077821;28;20071;-62
2022/06/29 00:29:48;;;;;;;3.10;1.95;;;18.10;99.90;;;;;;5077928;28;20032;-61
2022/06/29 00:32:15;;;;;;;2.85;2.30;;;18.00;99.90;;;;;;5077906;28;20068;-62
2022/06/29 00:34:40;;;;;;;3.78;2.10;;;18.00;99.90;;;;;;5060244;28;20044;-62
2022/06/29 00:37:07;;;;;;;3.22;2.20;;;18.00;99.90;;;;;;5077588;28;20032;-61
2022/06/29 00:39:33;;;;;;;3.67;2.20;;;18.00;99.90;;;;;;5060278;28;20099;-62
2022/06/29 00:41:58;;;;;;;5.35;2.00;;;18.00;99.90;;;;;;5077611;28;20067;-61
2022/06/29 00:44:24;;;;;;;3.85;2.40;;;18.00;99.90;;;;;;5077589;28;20033;-61
2022/06/29 00:46:53;;;;;;;9.10;2.33;;;18.00;99.90;;;;;;5077481;28;20044;-62
2022/06/29 00:49:21;;;;;;;4.65;2.70;;;18.00;99.90;;;;;;5077462;28;20355;-61
2022/06/29 00:51:49;;;;;;;3.15;2.63;;;17.80;99.90;;;;;;5077408;28;20028;-61
2022/06/29 00:54:23;;;;;;;2.90;2.47;;;17.80;99.90;;;;;;5077123;28;20024;-62
2022/06/29 00:56:51;;;;;;;5.18;2.70;;;17.70;99.90;;;;;;5060103;28;20036;-63
2022/06/29 00:59:25;;;;;;;3.83;2.42;;;17.80;99.90;;;;;;5077619;28;20353;-62
2022/06/29 01:01:51;;;;;;;5.63;2.72;;;17.80;99.90;;;;;;5077712;28;20025;-62
2022/06/29 01:04:17;;;;;;;3.55;2.80;;;17.80;99.90;;;;;;5059806;28;20040;-61
2022/06/29 01:06:44;;;;;;;3.63;2.60;;;17.80;99.90;;;;;;5077265;28;20031;-62
2022/06/29 01:09:10;;;;;;;3.08;2.50;;;17.70;99.90;;;;;;5077430;28;20047;-62
2022/06/29 01:11:36;;;;;;;5.65;2.60;;;17.60;99.90;;;;;;5077015;28;20051;-62
2022/06/29 01:14:02;;;;;;;2.92;2.47;;;17.60;99.90;;;;;;5043113;28;20120;-62
2022/06/29 01:16:29;;;;;;;4.80;2.65;;;17.60;99.90;;;;;;5077381;28;20035;-62
2022/06/29 01:18:54;;;;;;;3.80;2.58;;;17.60;99.90;;;;;;5077064;28;20033;-62
2022/06/29 01:21:21;;;;;;;4.05;2.70;;;17.60;99.90;;;;;;5059697;28;20086;-63
2022/06/29 01:23:47;;;;;;;3.90;2.70;;;17.60;99.90;;;;;;5077042;28;20028;-62
2022/06/29 01:26:13;;;;;;;4.40;2.50;;;17.60;99.90;;;;;;5059454;28;20404;-62
2022/06/29 01:28:44;;;;;;;5.13;3.00;;;17.60;99.90;;;;;;5077408;28;20106;-63
2022/06/29 01:31:17;;;;;;;5.65;2.90;;;17.50;99.90;;;;;;5076862;28;20385;-62
2022/06/29 01:33:44;;;;;;;3.72;2.53;;;17.40;99.90;;;;;;5076853;28;20039;-63
2022/06/29 01:36:11;;;;;;;5.15;2.92;;;17.40;99.90;;;;;;5076849;28;20094;-62
2022/06/29 01:38:38;;;;;;;7.63;3.25;;;17.40;99.90;;;;;;5077208;28;20029;-62
2022/06/29 01:41:05;;;;;;;4.00;2.65;;;17.30;99.90;;;;;;5077310;28;20293;-62
2022/06/29 01:43:32;;;;;;;4.93;3.05;;;17.30;99.90;;;;;;5059308;28;20134;-61
2022/06/29 01:45:58;;;;;;;4.07;2.78;;;17.30;99.90;;;;;;5076763;28;20270;-62
2022/06/29 01:48:24;;;;;;;5.53;3.22;;;17.30;99.90;;;;;;5077361;28;20119;-62
2022/06/29 01:50:50;;;;;;;5.13;3.15;;;17.20;99.90;;;;;;5076745;28;20376;-62
2022/06/29 01:53:16;;;;;;;3.53;2.90;;;17.20;99.90;;;;;;5076557;28;20036;-62
2022/06/29 01:55:44;;;;;;;5.70;2.83;;;17.10;99.90;;;;;;5077302;28;20044;-61
2022/06/29 01:58:11;;;;;;;3.30;2.75;;;17.10;99.90;;;;;;5076576;28;20020;-62
2022/06/29 02:00:36;;;;;;;4.68;2.90;;;17.00;99.90;;;;;;5076903;28;20389;-61
2022/06/29 02:03:02;;;;;;;4.85;2.85;;;17.00;99.90;;;;;;5076597;28;20121;-62
2022/06/29 02:05:28;;;;;;;4.55;3.15;;;17.00;99.90;;;;;;5059077;28;20115;-62
2022/06/29 02:07:54;;;;;;;4.53;3.10;;;17.00;99.90;;;;;;5079388;28;20349;-62
2022/06/29 02:10:20;;;;;;;3.75;3.20;;;17.00;99.90;;;;;;5080563;28;20056;-62
2022/06/29 02:12:46;;;;;;;5.43;2.83;;;16.90;99.90;;;;;;5080408;28;20419;-61
2022/06/29 02:15:11;;;;;;;6.50;3.10;;;16.90;99.90;;;;;;5080407;28;20092;-62
2022/06/29 02:17:37;;;;;;;3.80;3.00;;;17.00;99.90;;;;;;5080400;28;20072;-62
2022/06/29 02:20:04;;;;;;;2.83;2.63;;;16.90;99.90;;;;;;5063102;28;20037;-62
2022/06/29 02:22:30;;;;;;;3.63;3.10;;;16.90;99.90;;;;;;5080368;28;20040;-62
2022/06/29 02:24:55;;;;;;;5.28;3.22;;;16.90;99.90;;;;;;5080197;28;20105;-61
2022/06/29 02:27:21;;;;;;;3.83;3.10;;;16.90;99.90;;;;;;5079191;28;20067;-62
2022/06/29 02:29:47;;;;;;;5.35;3.40;;;16.80;99.90;;;;;;5078965;28;20103;-62
2022/06/29 02:34:57;;;;;;;3.65;3.20;;;16.80;99.90;;;;;;5078981;28;20024;-60
2022/06/29 02:37:23;;;;;;;5.78;3.90;;;16.80;99.90;;;;;;5079074;28;20025;-61
2022/06/29 02:39:49;;;;;;;4.90;3.38;;;16.70;99.90;;;;;;5079098;28;20129;-61
2022/06/29 02:42:15;;;;;;;3.22;2.90;;;16.80;99.90;;;;;;5079019;28;20119;-62
2022/06/29 02:44:41;;;;;;;4.47;3.60;;;16.70;99.90;;;;;;5078714;28;20064;-61
2022/06/29 02:47:08;;;;;;;5.93;3.17;;;16.70;99.90;;;;;;5061362;28;20075;-62
2022/06/29 02:49:34;;;;;;;3.70;2.97;;;16.70;99.90;;;;;;5078902;28;20442;-62
2022/06/29 02:52:00;;;;;;;3.70;3.40;;;16.70;99.90;;;;;;5078585;28;20134;-62
2022/06/29 02:54:26;;;;;;;5.30;3.45;;;16.60;99.90;;;;;;5078516;28;20031;-62
2022/06/29 02:56:53;;;;;;;3.60;3.03;;;16.60;99.90;;;;;;5078485;28;20033;-62
2022/06/29 02:59:20;;;;;;;4.45;3.38;;;16.60;99.90;;;;;;5078457;28;20311;-62
2022/06/29 03:01:46;;;;;;;4.00;3.33;;;16.50;99.90;;;;;;5078455;28;20051;-62
2022/06/29 03:04:12;;;;;;;5.13;3.40;;;16.60;99.90;;;;;;5078332;28;20028;-62
2022/06/29 03:06:38;;;;;;;4.95;3.50;;;16.60;99.90;;;;;;5078367;28;20048;-62
2022/06/29 03:09:04;;;;;;;5.35;3.72;;;16.60;99.90;;;;;;5061018;28;20118;-62
2022/06/29 03:11:30;;;;;;;5.88;3.90;;;16.60;99.90;;;;;;5078179;28;20047;-63
2022/06/29 03:13:56;;;;;;;4.70;3.65;;;16.50;99.90;;;;;;5078245;28;20044;-63
2022/06/29 03:16:22;;;;;;;4.90;3.97;;;16.60;99.90;;;;;;5078152;28;20036;-62
2022/06/29 03:18:49;;;;;;;7.70;3.38;;;16.50;99.90;;;;;;5060607;28;20085;-62
2022/06/29 03:21:15;;;;;;;5.32;3.80;;;16.50;99.90;;;;;;5078865;28;20056;-63
2022/06/29 03:23:42;;;;;;;5.80;3.90;;;16.50;99.90;;;;;;5078002;28;20027;-62
2022/06/29 03:26:08;;;;;;;4.80;3.80;;;16.40;99.90;;;;;;5039908;28;1107450;-63
2022/06/29 03:28:34;;;;;;;6.78;4.10;;;16.40;99.90;;;;;;5079295;28;20291;-63
2022/06/29 03:31:00;;;;;;;6.05;3.80;;;16.40;99.90;;;;;;5078932;28;20034;-62
2022/06/29 03:33:26;;;;;;;4.55;3.88;;;16.30;99.90;;;;;;5078667;28;20044;-63
2022/06/29 03:35:51;;;;;;;9.38;4.68;;;16.40;99.90;;;;;;5078808;28;20400;-62
2022/06/29 03:38:17;;;;;;;4.47;3.60;;;16.40;99.90;;;;;;5061617;28;20024;-63
2022/06/29 03:40:43;;;;;;;5.35;3.50;;;16.40;99.90;;;;;;5078824;28;20028;-66
2022/06/29 03:43:09;;;;;;;4.93;3.72;;;16.40;99.90;;;;;;5079014;28;20032;-60
2022/06/29 03:45:34;;;;;;;4.00;3.70;;;16.30;99.90;;;;;;5078685;28;20040;-60
2022/06/29 03:48:00;;;;;;;5.65;4.13;;;16.30;99.90;;;;;;5078691;28;20056;-62
2022/06/29 03:50:26;;;;;;;4.10;3.70;;;16.30;99.90;;;;;;5078432;28;20040;-62
2022/06/29 03:52:52;;;;;;;4.50;3.90;;;16.30;99.90;;;;;;5060988;28;20105;-61
2022/06/29 03:55:18;;;;;;;4.30;3.78;;;16.30;99.90;;;;;;5078542;28;20033;-61
2022/06/29 03:57:43;;;;;;;6.95;4.03;;;16.30;99.90;;;;;;5078433;28;20304;-62
2022/06/29 04:00:09;;;;;;;3.92;3.63;;;16.40;99.90;;;;;;5078355;28;20033;-62
2022/06/29 04:02:38;;;;;;;6.18;3.75;;;16.40;99.90;;;;;;5078677;28;20127;-62
2022/06/29 04:05:05;;;;;;;6.05;3.80;;;16.40;99.90;;;;;;5060881;28;20396;-61
2022/06/29 04:07:31;;;;;;;7.10;3.97;;;16.30;99.90;;;;;;5078252;28;20033;-61
2022/06/29 04:10:00;;;;;;;5.28;4.18;;;16.40;99.90;;;;;;5078244;28;20130;-61
2022/06/29 04:12:31;;;;;;;4.55;3.83;;;16.40;99.90;;;;;;5061208;28;20058;-61
2022/06/29 04:14:57;;;;;;;5.68;4.15;;;16.50;99.90;;;;;;5078133;28;20121;-62
2022/06/29 04:17:23;;;;;;;6.07;3.95;;;16.40;99.90;;;;;;5060842;28;20025;-62
2022/06/29 04:19:51;;;;;;;5.75;3.85;;;16.40;99.90;;;;;;5078032;28;20020;-63
2022/06/29 04:22:18;;;;;;;7.47;4.00;;;16.40;99.90;;;;;;5060921;28;20028;-62
2022/06/29 04:24:44;;;;;;;6.38;3.60;;;16.50;99.90;;;;;;5060953;28;20316;-62
2022/06/29 04:27:10;;;;;;;4.22;3.55;;;16.50;99.90;;;;;;5060325;28;20057;-62
2022/06/29 04:29:36;;;;;;;8.55;4.40;;;16.50;99.90;;;;;;5077347;28;20032;-62
2022/06/29 04:32:02;;;;;;;5.22;3.72;;;16.50;99.90;;;;;;5078038;28;20032;-63
2022/06/29 04:34:28;;;;;;;5.97;3.95;;;16.50;99.90;;;;;;5060733;28;20031;-62
2022/06/29 04:36:54;;;;;;;5.45;3.70;;;16.50;99.90;;;;;;5077694;28;20041;-62
2022/06/29 04:39:20;;;;;;;7.43;4.57;;;16.50;99.90;;;;;;5077673;28;20107;-63
2022/06/29 04:41:47;;;;;;;5.97;4.05;;;16.50;99.90;;;;;;5077633;28;20334;-62
2022/06/29 04:44:13;;;;;;;6.38;4.60;;;16.50;99.90;;;;;;5077616;28;20357;-62
2022/06/29 04:46:39;;;;;;;6.18;4.30;;;16.50;99.90;;;;;;5060306;28;20060;-62
2022/06/29 04:49:05;;;;;;;4.88;4.20;;;16.60;99.90;;;;;;5078065;28;20036;-61
2022/06/29 04:51:33;;;;;;;6.05;4.00;;;16.70;99.90;;;;;;5077300;28;20078;-62
2022/06/29 04:54:00;;;;;;;7.57;4.35;;;16.70;99.90;;;;;;5077392;28;20024;-62
2022/06/29 04:56:31;;;;;;;7.00;3.97;;;16.80;99.90;;;;;;5077287;28;20471;-62
2022/06/29 04:58:58;;;;;;;8.48;4.25;;;16.90;99.90;;;;;;5077288;28;20117;-62
2022/06/29 05:01:26;;;;;;;4.97;4.00;;;17.00;99.90;;;;;;5077388;28;20035;-61
2022/06/29 05:03:53;;;;;;;7.32;4.35;;;17.10;99.90;;;;;;5060005;28;20082;-64
2022/06/29 05:06:20;;;;;;;5.68;3.90;;;17.20;99.90;;;;;;5043382;28;20384;-62
2022/06/29 05:08:48;;;;;;;6.88;4.00;;;17.20;99.90;;;;;;5059822;28;20029;-62
2022/06/29 05:11:14;;;;;;;5.20;3.80;;;17.40;99.90;;;;;;5077130;28;20043;-64
2022/06/29 05:13:41;;;;;;;5.55;3.20;;;17.50;99.90;;;;;;5077179;28;20021;-62
2022/06/29 05:16:08;;;;;;;5.90;3.63;;;17.60;99.90;;;;;;5059576;28;20091;-63
2022/06/29 05:18:35;;;;;;;5.93;3.90;;;17.90;99.90;;;;;;5077139;28;20040;-63
2022/06/29 05:21:01;;;;;;;5.75;3.83;;;18.10;99.90;;;;;;5077025;28;20062;-63
2022/06/29 05:23:29;;;;;;;4.82;3.70;;;18.20;99.90;;;;;;5077303;28;20115;-61
2022/06/29 05:25:55;;;;;;;7.03;4.18;;;18.20;99.90;;;;;;5077089;28;20361;-62
2022/06/29 05:28:21;;;;;;;4.40;3.95;;;18.20;99.90;;;;;;5059467;28;20401;-62
2022/06/29 05:30:47;;;;;;;4.13;3.45;;;18.30;99.90;;;;;;5076920;28;20112;-62
2022/06/29 05:33:12;;;;;;;3.83;3.30;;;18.40;99.90;;;;;;5076799;28;20033;-62
2022/06/29 05:35:38;;;;;;;6.25;3.38;;;18.50;99.90;;;;;;5042800;28;20043;-62
2022/06/29 05:38:04;;;;;;;7.53;3.83;;;18.50;99.90;;;;;;5076742;28;20039;-62
2022/06/29 05:40:30;;;;;;;5.20;3.90;;;18.50;99.90;;;;;;5059320;28;20029;-62
2022/06/29 05:42:59;;;;;;;6.47;3.72;;;18.60;99.90;;;;;;5058881;28;20062;-62
2022/06/29 05:45:26;;;;;;;7.00;3.00;;;18.60;99.90;;;;;;5076823;28;20115;-62
2022/06/29 05:47:53;;;;;;;7.68;3.78;;;18.50;99.90;;;;;;5076727;28;20466;-62
2022/06/29 05:50:20;;;;;;;6.13;3.33;;;18.50;99.90;;;;;;5077260;28;20051;-62
2022/06/29 05:52:47;;;;;;;3.63;2.80;;;18.50;99.90;;;;;;5042507;28;20098;-62
2022/06/29 05:55:13;;;;;;;5.22;3.45;;;18.60;99.90;;;;;;5076658;28;20075;-62
2022/06/29 05:57:38;;;;;;;3.58;2.88;;;18.70;99.90;;;;;;5076664;28;20373;-63
2022/06/29 06:00:05;;;;;;;3.47;2.88;;;18.80;99.90;;;;;;5059246;28;20107;-63
2022/06/29 06:02:37;;;;;;;4.38;3.20;;;18.90;99.90;;;;;;5076987;28;20060;-63
2022/06/29 06:05:03;;;;;;;5.45;3.22;;;19.00;99.90;;;;;;5076477;28;20040;-63
2022/06/29 06:07:29;;;;;;;6.90;3.25;;;19.00;99.90;;;;;;5076505;28;20025;-63
2022/06/29 06:09:55;;;;;;;5.10;3.00;;;19.10;99.90;;;;;;5076594;28;20047;-62
2022/06/29 06:12:21;;;;;;;4.60;2.80;;;19.10;99.90;;;;;;5076358;28;20431;-62
2022/06/29 06:14:46;;;;;;;7.70;3.17;;;19.20;99.90;;;;;;5077105;28;20036;-63
2022/06/29 06:17:12;;;;;;;5.45;2.90;;;19.20;99.90;;;;;;5059187;28;20400;-62
2022/06/29 06:19:38;;;;;;;8.63;2.92;;;19.10;99.90;;;;;;5076397;28;20036;-62
2022/06/29 06:22:04;;;;;;;5.43;2.92;;;19.20;99.90;;;;;;5076474;28;20404;-63
2022/06/29 06:24:30;;;;;;;8.00;3.17;;;19.30;99.90;;;;;;5076447;28;20032;-63
2022/06/29 06:26:56;;;;;;;6.65;3.03;;;19.20;99.90;;;;;;5076801;28;20090;-63
2022/06/29 06:29:21;;;;;;;5.25;3.00;;;19.20;99.90;;;;;;5076930;28;20141;-62
2022/06/29 06:31:47;;;;;;;6.03;3.15;;;19.30;99.90;;;;;;5059340;28;20086;-63
2022/06/29 06:34:14;;;;;;;6.53;2.80;;;19.40;99.90;;;;;;5059705;28;20039;-63
2022/06/29 06:36:40;;;;;;;5.13;2.72;;;19.70;99.90;;;;;;5076640;28;20093;-64
2022/06/29 06:39:06;;;;;;;5.75;2.70;;;19.70;99.90;;;;;;5059074;28;20028;-63
2022/06/29 06:41:31;;;;;;;8.85;3.10;;;19.90;99.90;;;;;;5076207;28;20400;-63
2022/06/29 06:44:00;;;;;;;7.85;2.50;;;20.00;99.90;;;;;;5076249;28;20117;-63
2022/06/29 06:46:28;;;;;;;6.20;3.10;;;20.10;99.90;;;;;;5076263;28;20432;-64
2022/06/29 06:48:53;;;;;;;8.70;2.75;;;20.10;99.90;;;;;;5076199;28;20103;-61
2022/06/29 06:51:21;;;;;;;7.38;2.45;;;20.20;99.90;;;;;;5058741;28;20028;-62
2022/06/29 06:53:47;;;;;;;5.10;2.17;;;20.30;99.90;;;;;;5060995;28;20024;-64
2022/06/29 06:56:14;;;;;;;5.55;2.00;;;20.40;99.90;;;;;;5079725;28;20020;-62
2022/06/29 06:58:40;;;;;;;4.10;2.38;;;20.70;99.90;;;;;;5062287;28;20127;-62
2022/06/29 07:01:08;;;;;;;4.60;2.25;;;20.80;99.90;;;;;;5079569;28;20083;-63
2022/06/29 07:03:37;;;;;;;3.15;2.05;;;20.80;99.90;;;;;;5079614;28;20032;-64
2022/06/29 07:06:08;;;;;;;5.32;2.30;;;20.90;99.90;;;;;;5079855;28;20028;-64
2022/06/29 07:08:35;;;;;;;6.88;2.10;;;21.00;99.90;;;;;;5062175;28;20115;-63
2022/06/29 07:11:02;;;;;;;4.30;2.00;;;21.00;99.90;;;;;;5079666;28;20070;-65
2022/06/29 07:13:28;;;;;;;5.40;2.42;;;21.00;99.90;;;;;;5080259;28;20033;-64
2022/06/29 07:15:55;;;;;;;4.13;2.42;;;21.00;99.90;;;;;;5061932;28;20388;-64
2022/06/29 07:18:21;;;;;;;6.55;1.75;;;20.90;99.90;;;;;;5061982;28;20116;-62
2022/06/29 07:20:47;;;;;;;6.05;2.05;;;21.10;99.90;;;;;;5079427;28;20028;-63
2022/06/29 07:23:13;;;;;;;6.32;1.48;;;21.20;99.90;;;;;;5079142;28;20028;-63
2022/06/29 07:25:39;;;;;;;8.13;2.05;;;21.50;99.90;;;;;;5061771;28;20043;-64
2022/06/29 07:28:05;;;;;;;5.20;2.05;;;21.50;99.90;;;;;;5079244;28;20033;-64
2022/06/29 07:30:31;;;;;;;9.80;1.63;;;21.50;99.90;;;;;;5061665;28;20040;-64
2022/06/29 07:32:57;;;;;;;3.00;1.55;;;21.60;99.90;;;;;;5061686;28;20043;-63
2022/06/29 07:35:24;;;;;;;5.38;1.40;;;21.60;99.90;;;;;;5078891;28;20108;-63
2022/06/29 07:37:51;;;;;;;3.05;1.50;;;21.80;99.90;;;;;;5079520;28;20452;-64
2022/06/29 07:40:17;;;;;;;4.55;1.23;;;21.90;99.90;;;;;;5078860;28;20037;-63
2022/06/29 07:42:43;;;;;;;3.10;1.75;;;21.90;99.90;;;;;;5061664;28;20112;-66
2022/06/29 07:45:10;;;;;;;2.85;1.23;;;21.90;99.90;;;;;;5080351;28;20032;-66
2022/06/29 07:47:35;;;;;;;6.70;1.75;;;22.00;99.90;;;;;;5080601;28;20151;-67
2022/06/29 07:50:01;;;;;;;3.28;1.35;;;22.10;99.90;;;;;;5080540;28;20420;-65
2022/06/29 07:52:27;;;;;;;4.65;1.83;;;22.00;99.90;;;;;;5062229;28;20105;-65
2022/06/29 07:54:53;;;;;;;3.70;1.67;;;22.00;99.90;;;;;;5079382;28;20109;-65
2022/06/29 07:57:19;;;;;;;3.35;1.65;;;22.00;99.90;;;;;;5080550;28;20059;-66
2022/06/29 07:59:46;;;;;;;5.15;1.60;;;22.10;99.90;;;;;;5063436;28;20373;-67
2022/06/29 08:02:13;;;;;;;5.30;1.70;;;22.30;99.90;;;;;;5081084;28;20127;-64
2022/06/29 08:04:38;;;;;;;7.68;3.42;;;22.50;99.90;;;;;;5061221;28;20036;-66
2022/06/29 08:07:04;;;;;;;6.65;2.03;;;22.40;99.90;;;;;;5080767;28;20380;-64
2022/06/29 08:09:31;;;;;;;4.57;1.83;;;22.40;99.90;;;;;;5079410;28;20388;-67
2022/06/29 08:11:57;;;;;;;6.18;2.08;;;22.30;99.90;;;;;;5061900;28;20059;-64
2022/06/29 08:14:23;;;;;;;4.93;1.63;;;22.30;99.90;;;;;;5062135;28;20388;-66
2022/06/29 08:16:49;;;;;;;5.45;2.13;;;22.40;99.90;;;;;;5078985;28;20017;-65
2022/06/29 08:19:14;;;;;;;27.00;9.82;;;22.40;99.90;;;;;;5061329;28;20024;-65
2022/06/29 08:21:40;;;;;;;19.50;7.40;;;22.40;99.90;;;;;;5079944;28;20029;-65
2022/06/29 08:24:06;;;;;;;5.20;2.20;;;22.40;99.90;;;;;;5063066;28;20327;-63
2022/06/29 08:26:32;;;;;;;3.53;1.83;;;22.60;99.90;;;;;;5061716;28;20048;-64
2022/06/29 08:28:58;;;;;;;3.53;1.58;;;22.70;99.90;;;;;;5078234;28;20039;-65
2022/06/29 08:31:24;;;;;;;4.78;1.63;;;22.70;99.90;;;;;;5061265;28;20101;-63
2022/06/29 08:33:50;;;;;;;4.60;1.92;;;22.80;99.90;;;;;;5062159;28;20064;-65
2022/06/29 08:36:15;;;;;;;6.70;1.98;;;22.70;99.90;;;;;;5079322;28;20037;-66
2022/06/29 08:38:41;;;;;;;11.82;3.63;;;22.80;99.90;;;;;;5078989;28;20277;-66
2022/06/29 08:41:08;;;;;;;4.72;1.92;;;22.80;99.90;;;;;;5061518;28;20037;-64
2022/06/29 08:43:34;;;;;;;5.40;1.75;;;22.80;99.90;;;;;;5062100;28;20119;-67
2022/06/29 08:46:00;;;;;;;8.18;2.00;;;23.00;99.90;;;;;;5062409;28;20324;-65
2022/06/29 08:48:26;;;;;;;3.88;1.92;;;23.10;99.90;;;;;;5044709;28;20336;-65
2022/06/29 08:50:53;;;;;;;4.60;1.85;;;23.20;99.90;;;;;;5078219;28;20036;-64
2022/06/29 08:53:21;;;;;;;7.57;2.30;;;23.20;99.90;;;;;;5061879;28;20111;-67
2022/06/29 08:55:51;;;;;;;7.60;1.88;;;23.20;99.90;;;;;;5078782;28;20400;-64
2022/06/29 08:58:23;;;;;;;4.90;1.67;;;23.20;99.90;;;;;;5061402;28;20040;-64
2022/06/29 09:00:49;;;;;;;2.37;1.57;;;23.30;99.90;;;;;;5079291;28;20390;-65
2022/06/29 09:03:18;;;;;;;6.00;1.80;;;23.50;99.90;;;;;;5079276;28;20108;-66
2022/06/29 09:05:56;;;;;;;4.47;1.88;;;23.80;99.90;;;;;;5079225;28;20280;-63
2022/06/29 09:08:23;;;;;;;3.22;1.67;;;24.00;99.90;;;;;;5078257;28;20028;-65
2022/06/29 09:10:49;;;;;;;5.38;1.80;;;23.80;99.90;;;;;;5078153;28;20106;-66
2022/06/29 09:13:23;;;;;;;4.82;1.90;;;24.00;99.90;;;;;;5078047;28;20308;-65
2022/06/29 09:15:59;;;;;;;6.85;1.90;;;24.10;99.90;;;;;;5078967;28;20359;-67
2022/06/29 09:18:30;;;;;;;4.20;1.80;;;24.10;99.90;;;;;;5060698;28;20033;-66
2022/06/29 09:20:59;;;;;;;7.25;1.67;;;24.20;99.90;;;;;;5061573;28;20036;-68
2022/06/29 09:23:27;;;;;;;5.15;1.77;;;24.10;99.90;;;;;;5079005;28;20024;-65
2022/06/29 09:25:53;;;;;;;3.50;1.80;;;24.10;99.90;;;;;;5078680;28;20102;-65
2022/06/29 09:28:24;;;;;;;2.70;1.60;;;24.10;99.90;;;;;;5061860;28;20094;-64
2022/06/29 09:30:54;;;;;;;5.93;2.10;;;24.20;99.90;;;;;;5063006;28;20038;-67
2022/06/29 09:33:31;;;;;;;5.95;2.20;;;24.30;99.90;;;;;;5079425;28;20300;-66
2022/06/29 09:36:17;;;;;;;3.25;1.77;;;24.40;99.90;;;;;;5078715;28;20059;-67
2022/06/29 09:38:43;;;;;;;5.10;1.90;;;24.30;99.90;;;;;;5077619;28;20102;-68
2022/06/29 09:41:12;;;;;;;4.03;1.98;;;24.60;99.90;;;;;;5079206;28;20026;-65
2022/06/29 09:43:40;;;;;;;6.15;1.85;;;24.40;99.90;;;;;;5062488;28;20028;-67
2022/06/29 09:46:09;;;;;;;2.92;1.40;;;24.40;99.90;;;;;;5079243;28;20048;-65
2022/06/29 09:48:36;;;;;;;3.53;1.40;;;24.50;99.90;;;;;;5078934;28;20033;-64
2022/06/29 09:51:30;;;;;;;2.47;1.45;;;24.40;99.90;;;;;;5079229;28;20483;-69
2022/06/29 09:53:57;;;;;;;5.55;1.60;;;24.40;99.90;;;;;;5079159;28;20309;-68
2022/06/29 09:56:27;;;;;;;3.85;1.33;;;24.60;99.90;;;;;;5078647;28;20028;-65
2022/06/29 09:58:58;;;;;;;3.10;1.40;;;24.80;99.90;;;;;;5078814;28;20037;-66
2022/06/29 10:04:10;;;;;;;5.60;1.50;;;24.80;99.90;;;;;;5078466;28;20170;-65
2022/06/29 10:06:37;;;;;;;2.97;1.20;;;24.80;99.90;;;;;;5060739;28;20067;-67
2022/06/29 10:09:03;;;;;;;2.33;1.30;;;24.70;99.90;;;;;;5078806;28;20077;-65
2022/06/29 10:15:28;;;;;;;5.90;1.60;;;24.80;99.90;;;;;;5077059;28;20301;-63
2022/06/29 10:18:15;;;;;;;2.20;1.00;;;25.40;99.90;;;;;;5029076;28;20040;-65
2022/06/29 10:20:48;;;;;;;3.00;0.93;;;25.40;99.90;;;;;;5076256;28;20040;-64
2022/06/29 10:23:46;;;;;;;2.97;1.13;;;25.70;99.90;;;;;;5042513;28;20071;-62
2022/06/29 10:26:31;;;;;;;2.13;0.95;;;25.70;99.90;;;;;;5076246;28;20048;-68
2022/06/29 10:29:23;;;;;;;3.33;1.00;;;25.70;99.90;;;;;;5079180;28;20052;-65
2022/06/29 10:31:52;;;;;;;2.80;1.10;;;26.00;99.90;;;;;;5079992;28;20036;-65
2022/06/29 10:34:30;;;;;;;1.35;0.75;;;26.20;99.90;;;;;;5080341;28;20032;-61
2022/06/29 10:37:02;;;;;;;3.15;1.08;;;26.00;99.90;;;;;;5080175;28;20185;-62
2022/06/29 10:39:48;;;;;;;;;;;25.80;99.90;;;;;;5081014;28;20276;-64
2022/06/29 10:45:17;;;;;;;3.28;0.90;;;25.80;99.90;;;;;;5033797;28;20048;-61
2022/06/29 10:47:55;;;;;;;1.52;1.05;;;25.60;99.90;;;;;;5080236;28;20396;-60
2022/06/29 10:50:28;;;;;;;2.22;1.00;;;25.90;99.90;;;;;;5079837;28;20061;-62
2022/06/29 10:52:59;;;;;;;1.63;0.80;;;26.10;99.90;;;;;;5062273;28;20029;-61
2022/06/29 10:55:30;;;;;;;2.35;0.90;;;26.30;99.90;;;;;;5079785;28;20031;-59
2022/06/29 10:58:00;;;;;;;2.80;0.75;;;26.60;99.90;;;;;;5079716;28;20029;-59
2022/06/29 11:00:30;;;;;;;3.05;0.90;;;26.60;99.90;;;;;;5079741;28;20274;-65
2022/06/29 11:02:56;;;;;;;3.03;0.80;;;26.40;99.90;;;;;;5079610;28;20040;-67
2022/06/29 11:05:23;;;;;;;3.85;1.02;;;26.90;99.90;;;;;;5079888;28;20393;-59
2022/06/29 11:13:24;;;;;;;;;;;28.00;99.90;;;;;;5064895;28;20036;-62
2022/06/29 11:15:53;;;;;;;4.00;0.88;;;29.00;99.90;;;;;;5079428;28;19914;-62
2022/06/29 11:18:27;;;;;;;2.22;0.70;;;29.60;99.90;;;;;;5079397;28;20017;-64
2022/06/29 11:20:54;;;;;;;2.10;0.80;;;30.00;99.90;;;;;;5079319;28;20075;-63
2022/06/29 11:23:32;;;;;;;3.65;1.00;;;30.60;98.90;;;;;;5079337;28;20052;-63
2022/06/29 11:25:59;;;;;;;1.88;0.90;;;30.30;98.60;;;;;;5079503;28;20044;-60
2022/06/29 11:28:28;;;;;;;2.05;0.70;;;29.50;97.70;;;;;;5079139;28;20020;-62
2022/06/29 11:31:11;;;;;;;6.43;1.00;;;29.20;99.30;;;;;;5079390;28;20029;-66
2022/06/29 11:33:42;;;;;;;4.25;0.80;;;29.90;97.00;;;;;;5061636;28;20419;-61
2022/06/29 11:36:09;;;;;;;4.40;0.77;;;30.50;95.10;;;;;;5079058;28;20035;-64
2022/06/29 11:38:46;;;;;;;2.35;0.88;;;29.60;96.20;;;;;;5078950;28;20024;-61
2022/06/29 11:41:13;;;;;;;2.75;0.77;;;29.10;96.60;;;;;;5079402;28;20047;-64
2022/06/29 11:43:39;;;;;;;3.30;0.80;;;29.00;96.40;;;;;;5061593;28;20064;-64
2022/06/29 11:46:04;;;;;;;1.10;0.80;;;30.70;93.40;;;;;;5078760;28;20477;-63
2022/06/29 11:48:31;;;;;;;2.78;0.85;;;31.60;91.90;;;;;;5079250;28;20086;-62
2022/06/29 11:50:59;;;;;;;3.75;0.73;;;30.30;91.90;;;;;;5078688;28;20399;-63
2022/06/29 11:53:56;;;;;;;3.00;0.82;;;31.30;90.50;;;;;;5078640;28;20346;-62
2022/06/29 11:56:26;;;;;;;1.45;0.63;;;31.40;89.50;;;;;;5062550;28;20043;-62
2022/06/29 11:58:55;;;;;;;2.83;0.75;;;30.60;90.50;;;;;;5079129;28;20036;-63
2022/06/29 12:01:26;;;;;;;1.23;0.90;;;30.40;90.30;;;;;;5061066;28;20086;-65
2022/06/29 12:04:01;;;;;;;1.52;0.88;;;30.20;90.90;;;;;;5078559;28;20304;-62
2022/06/29 12:06:29;;;;;;;3.53;0.90;;;31.40;89.80;;;;;;5078942;28;20036;-69
2022/06/29 12:08:56;;;;;;;4.93;1.20;;;29.90;87.90;;;;;;5078514;28;20025;-66
2022/06/29 12:11:23;;;;;;;2.67;0.80;;;29.50;91.10;;;;;;5078441;28;20096;-64
2022/06/29 12:13:50;;;;;;;4.10;1.08;;;29.50;90.50;;;;;;5078294;28;20097;-64
2022/06/29 12:16:16;;;;;;;1.88;0.70;;;30.60;87.30;;;;;;5060980;28;20067;-66
2022/06/29 12:18:42;;;;;;;2.17;0.80;;;31.70;83.80;;;;;;5078259;28;20040;-65
2022/06/29 12:21:09;;;;;;;5.38;1.08;;;32.30;82.20;;;;;;5078144;28;20024;-63
2022/06/29 12:23:36;;;;;;;1.52;0.77;;;32.20;80.70;;;;;;5078076;28;20032;-67
2022/06/29 12:26:02;;;;;;;2.47;0.90;;;33.20;79.00;;;;;;5060433;28;20060;-64
2022/06/29 12:28:29;;;;;;;3.80;0.75;;;33.50;76.50;;;;;;5077978;28;20029;-67
2022/06/29 12:30:55;;;;;;;2.38;0.77;;;34.00;73.80;;;;;;5077966;28;20105;-64
2022/06/29 12:33:21;;;;;;;1.77;0.82;;;35.60;69.80;;;;;;5077827;28;20060;-67
2022/06/29 12:35:49;;;;;;;3.20;0.90;;;36.50;65.20;;;;;;5077809;28;20028;-65
2022/06/29 12:38:15;;;;;;;2.38;0.82;;;34.80;66.10;;;;;;5077759;28;20032;-64
2022/06/29 12:40:40;;;;;;;1.17;0.68;;;35.10;66.00;;;;;;5077747;28;20292;-63
2022/06/29 12:43:06;;;;;;;1.67;0.90;;;33.20;67.50;;;;;;5060231;28;20115;-61
2022/06/29 12:45:32;;;;;;;0.75;0.60;;;32.10;71.20;;;;;;5078216;28;20036;-66
2022/06/29 12:47:58;;;;;;;3.80;0.77;;;31.70;71.60;;;;;;5077523;28;20426;-67
2022/06/29 12:50:24;;;;;;;2.25;0.85;;;33.50;67.20;;;;;;5077072;28;20355;-64
2022/06/29 12:52:51;;;;;;;3.22;0.73;;;35.50;62.50;;;;;;5059950;28;20036;-65
2022/06/29 12:55:20;;;;;;;3.42;1.00;;;37.10;59.00;;;;;;5077389;28;20037;-63
2022/06/29 12:57:47;;;;;;;2.88;0.80;;;36.20;58.30;;;;;;5077379;28;20164;-63
2022/06/29 13:00:15;;;;;;;4.00;0.90;;;33.50;62.70;;;;;;5059938;28;20036;-65
2022/06/29 13:02:41;;;;;;;1.75;0.77;;;33.90;65.00;;;;;;5077310;28;20060;-65
2022/06/29 13:05:08;;;;;;;3.95;0.88;;;35.20;62.00;;;;;;5077289;28;20316;-63
2022/06/29 13:07:34;;;;;;;5.15;0.90;;;32.90;64.70;;;;;;5077189;28;20040;-64